Aviation Digital Data Service (ADDS)

Output produced by METARs form (0927 UTC 06 May 2015)
found at http://aviationweather.gov/adds/metars/
 
KSAN 060905Z 0609/0712 VRB03KT P6SM SCT025 OVC035 
     FM061800 28011KT P6SM BKN035 
     FM070100 VRB04KT P6SM BKN035 
     FM070600 VRB04KT P6SM OVC030